sensor_id;sensor_type;location;lat;lon;timestamp;temperature;humidity
16505;HTU21D;8365;51.030;4.696;2022-11-04T00:00:02;10.04;118.99
16505;HTU21D;8365;51.030;4.696;2022-11-04T00:02:33;10.12;118.99
16505;HTU21D;8365;51.030;4.696;2022-11-04T00:05:04;10.06;118.99
16505;HTU21D;8365;51.030;4.696;2022-11-04T00:07:34;9.98;118.99
16505;HTU21D;8365;51.030;4.696;2022-11-04T00:10:23;10.05;118.99
16505;HTU21D;8365;51.030;4.696;2022-11-04T00:13:14;10.12;118.99
16505;HTU21D;8365;51.030;4.696;2022-11-04T00:15:44;10.19;118.99
16505;HTU21D;8365;51.030;4.696;2022-11-04T00:18:34;10.22;118.99
16505;HTU21D;8365;51.030;4.696;2022-11-04T00:21:05;10.31;118.99
16505;HTU21D;8365;51.030;4.696;2022-11-04T00:23:54;10.26;118.99
16505;HTU21D;8365;51.030;4.696;2022-11-04T00:26:43;10.19;118.99
16505;HTU21D;8365;51.030;4.696;2022-11-04T00:29:32;10.22;118.99
16505;HTU21D;8365;51.030;4.696;2022-11-04T00:32:03;10.14;118.99
16505;HTU21D;8365;51.030;4.696;2022-11-04T00:34:51;10.11;118.99
16505;HTU21D;8365;51.030;4.696;2022-11-04T00:37:25;10.09;118.99
16505;HTU21D;8365;51.030;4.696;2022-11-04T00:39:55;10.18;118.99
16505;HTU21D;8365;51.030;4.696;2022-11-04T00:42:26;10.14;118.99
16505;HTU21D;8365;51.030;4.696;2022-11-04T00:44:56;10.24;118.99
16505;HTU21D;8365;51.030;4.696;2022-11-04T00:47:27;10.27;118.99
16505;HTU21D;8365;51.030;4.696;2022-11-04T00:49:57;10.21;118.99
16505;HTU21D;8365;51.030;4.696;2022-11-04T00:52:28;10.20;118.99
16505;HTU21D;8365;51.030;4.696;2022-11-04T00:54:58;10.30;118.99
16505;HTU21D;8365;51.030;4.696;2022-11-04T00:57:28;10.38;118.99
16505;HTU21D;8365;51.030;4.696;2022-11-04T00:59:59;10.43;118.99
16505;HTU21D;8365;51.030;4.696;2022-11-04T01:02:32;10.26;118.99
16505;HTU21D;8365;51.030;4.696;2022-11-04T01:05:06;10.27;118.99
16505;HTU21D;8365;51.030;4.696;2022-11-04T01:07:37;10.36;118.99
16505;HTU21D;8365;51.030;4.696;2022-11-04T01:10:08;10.36;118.99
16505;HTU21D;8365;51.030;4.696;2022-11-04T01:12:38;10.25;118.99
16505;HTU21D;8365;51.030;4.696;2022-11-04T01:15:09;10.12;118.99
16505;HTU21D;8365;51.030;4.696;2022-11-04T01:17:42;9.96;118.99
16505;HTU21D;8365;51.030;4.696;2022-11-04T01:20:13;9.91;118.99
16505;HTU21D;8365;51.030;4.696;2022-11-04T01:22:43;10.10;118.99
16505;HTU21D;8365;51.030;4.696;2022-11-04T01:25:14;10.07;118.99
16505;HTU21D;8365;51.030;4.696;2022-11-04T01:27:44;10.27;118.99
16505;HTU21D;8365;51.030;4.696;2022-11-04T01:30:15;10.31;118.99
16505;HTU21D;8365;51.030;4.696;2022-11-04T01:32:48;10.58;118.99
16505;HTU21D;8365;51.030;4.696;2022-11-04T01:35:20;10.69;118.99
16505;HTU21D;8365;51.030;4.696;2022-11-04T01:37:50;10.66;118.99
16505;HTU21D;8365;51.030;4.696;2022-11-04T01:40:20;10.68;118.99
16505;HTU21D;8365;51.030;4.696;2022-11-04T01:42:51;10.57;118.99
16505;HTU21D;8365;51.030;4.696;2022-11-04T01:45:22;10.62;118.99
16505;HTU21D;8365;51.030;4.696;2022-11-04T01:48:32;10.60;118.99
16505;HTU21D;8365;51.030;4.696;2022-11-04T01:50:59;10.55;118.99
16505;HTU21D;8365;51.030;4.696;2022-11-04T01:53:32;10.35;118.99
16505;HTU21D;8365;51.030;4.696;2022-11-04T01:56:06;10.33;118.99
16505;HTU21D;8365;51.030;4.696;2022-11-04T01:58:51;10.26;118.99
16505;HTU21D;8365;51.030;4.696;2022-11-04T02:01:22;10.37;118.99
16505;HTU21D;8365;51.030;4.696;2022-11-04T02:03:58;10.48;118.99
16505;HTU21D;8365;51.030;4.696;2022-11-04T02:06:48;10.28;118.99
16505;HTU21D;8365;51.030;4.696;2022-11-04T02:09:25;10.07;118.99
16505;HTU21D;8365;51.030;4.696;2022-11-04T02:11:56;9.98;118.99
16505;HTU21D;8365;51.030;4.696;2022-11-04T02:14:49;9.86;118.99
16505;HTU21D;8365;51.030;4.696;2022-11-04T02:17:41;10.00;118.99
16505;HTU21D;8365;51.030;4.696;2022-11-04T02:29:53;9.85;118.99
16505;HTU21D;8365;51.030;4.696;2022-11-04T02:37:49;9.80;118.99
16505;HTU21D;8365;51.030;4.696;2022-11-04T02:46:23;9.66;118.99
16505;HTU21D;8365;51.030;4.696;2022-11-04T02:49:07;9.72;118.99
16505;HTU21D;8365;51.030;4.696;2022-11-04T02:52:04;9.72;118.99
16505;HTU21D;8365;51.030;4.696;2022-11-04T02:54:49;9.46;118.99
16505;HTU21D;8365;51.030;4.696;2022-11-04T02:57:26;9.54;118.99
16505;HTU21D;8365;51.030;4.696;2022-11-04T03:00:08;9.51;118.99
16505;HTU21D;8365;51.030;4.696;2022-11-04T03:02:52;9.70;118.99
16505;HTU21D;8365;51.030;4.696;2022-11-04T03:05:27;9.78;118.99
16505;HTU21D;8365;51.030;4.696;2022-11-04T03:08:03;9.79;118.99
16505;HTU21D;8365;51.030;4.696;2022-11-04T03:10:37;9.98;118.99
16505;HTU21D;8365;51.030;4.696;2022-11-04T03:13:35;9.95;118.99
16505;HTU21D;8365;51.030;4.696;2022-11-04T03:16:12;9.83;118.99
16505;HTU21D;8365;51.030;4.696;2022-11-04T03:19:01;9.90;118.99
16505;HTU21D;8365;51.030;4.696;2022-11-04T03:21:36;10.05;118.99
16505;HTU21D;8365;51.030;4.696;2022-11-04T03:24:08;9.86;118.99
16505;HTU21D;8365;51.030;4.696;2022-11-04T03:26:46;10.23;118.99
16505;HTU21D;8365;51.030;4.696;2022-11-04T03:29:25;10.33;118.99
16505;HTU21D;8365;51.030;4.696;2022-11-04T03:34:58;10.46;118.99
16505;HTU21D;8365;51.030;4.696;2022-11-04T03:37:29;10.64;118.99
16505;HTU21D;8365;51.030;4.696;2022-11-04T03:40:00;10.60;118.99
16505;HTU21D;8365;51.030;4.696;2022-11-04T03:42:37;10.70;118.99
16505;HTU21D;8365;51.030;4.696;2022-11-04T03:45:10;10.82;118.99
16505;HTU21D;8365;51.030;4.696;2022-11-04T03:47:41;10.93;118.99
16505;HTU21D;8365;51.030;4.696;2022-11-04T03:50:22;10.90;118.99
16505;HTU21D;8365;51.030;4.696;2022-11-04T03:52:56;10.87;118.99
16505;HTU21D;8365;51.030;4.696;2022-11-04T03:56:01;10.99;118.99
16505;HTU21D;8365;51.030;4.696;2022-11-04T03:58:51;10.97;118.99
16505;HTU21D;8365;51.030;4.696;2022-11-04T04:04:27;11.11;118.99
16505;HTU21D;8365;51.030;4.696;2022-11-04T04:07:11;11.09;118.99
16505;HTU21D;8365;51.030;4.696;2022-11-04T04:09:58;11.19;118.99
16505;HTU21D;8365;51.030;4.696;2022-11-04T04:12:40;11.29;118.99
16505;HTU21D;8365;51.030;4.696;2022-11-04T04:15:18;11.12;118.99
16505;HTU21D;8365;51.030;4.696;2022-11-04T04:18:00;11.08;118.99
16505;HTU21D;8365;51.030;4.696;2022-11-04T04:20:34;11.22;118.99
16505;HTU21D;8365;51.030;4.696;2022-11-04T04:23:13;11.30;118.99
16505;HTU21D;8365;51.030;4.696;2022-11-04T04:26:05;11.28;118.99
16505;HTU21D;8365;51.030;4.696;2022-11-04T04:29:01;11.37;118.99
16505;HTU21D;8365;51.030;4.696;2022-11-04T04:31:35;11.32;118.99
16505;HTU21D;8365;51.030;4.696;2022-11-04T04:39:33;11.43;118.99
16505;HTU21D;8365;51.030;4.696;2022-11-04T04:42:24;11.41;118.99
16505;HTU21D;8365;51.030;4.696;2022-11-04T04:45:20;11.28;118.99
16505;HTU21D;8365;51.030;4.696;2022-11-04T04:47:51;11.26;118.99
16505;HTU21D;8365;51.030;4.696;2022-11-04T04:50:27;11.20;118.99
16505;HTU21D;8365;51.030;4.696;2022-11-04T04:53:00;11.24;118.99
16505;HTU21D;8365;51.030;4.696;2022-11-04T04:55:33;11.14;118.99
16505;HTU21D;8365;51.030;4.696;2022-11-04T04:58:03;11.13;118.99
16505;HTU21D;8365;51.030;4.696;2022-11-04T05:00:34;11.15;118.99
16505;HTU21D;8365;51.030;4.696;2022-11-04T05:03:04;11.05;118.99
16505;HTU21D;8365;51.030;4.696;2022-11-04T05:05:37;10.99;118.99
16505;HTU21D;8365;51.030;4.696;2022-11-04T05:08:08;11.11;118.99
16505;HTU21D;8365;51.030;4.696;2022-11-04T05:10:38;11.15;118.99
16505;HTU21D;8365;51.030;4.696;2022-11-04T05:13:11;11.18;118.99
16505;HTU21D;8365;51.030;4.696;2022-11-04T05:16:07;11.27;118.99
16505;HTU21D;8365;51.030;4.696;2022-11-04T05:18:37;11.29;118.99
16505;HTU21D;8365;51.030;4.696;2022-11-04T05:21:13;11.36;118.99
16505;HTU21D;8365;51.030;4.696;2022-11-04T05:23:43;11.44;118.99
16505;HTU21D;8365;51.030;4.696;2022-11-04T05:26:14;11.45;118.99
16505;HTU21D;8365;51.030;4.696;2022-11-04T05:28:45;11.52;118.99
16505;HTU21D;8365;51.030;4.696;2022-11-04T05:31:15;11.55;118.99
16505;HTU21D;8365;51.030;4.696;2022-11-04T05:33:46;11.56;118.99
16505;HTU21D;8365;51.030;4.696;2022-11-04T05:36:16;11.66;118.99
16505;HTU21D;8365;51.030;4.696;2022-11-04T05:38:53;11.66;118.99
16505;HTU21D;8365;51.030;4.696;2022-11-04T05:41:24;11.69;118.99
16505;HTU21D;8365;51.030;4.696;2022-11-04T05:43:57;11.68;118.99
16505;HTU21D;8365;51.030;4.696;2022-11-04T05:46:31;11.79;118.99
16505;HTU21D;8365;51.030;4.696;2022-11-04T05:49:02;11.72;118.99
16505;HTU21D;8365;51.030;4.696;2022-11-04T05:51:32;11.79;118.99
16505;HTU21D;8365;51.030;4.696;2022-11-04T05:54:03;11.72;118.99
16505;HTU21D;8365;51.030;4.696;2022-11-04T05:56:33;11.69;118.99
16505;HTU21D;8365;51.030;4.696;2022-11-04T05:59:04;11.74;118.99
16505;HTU21D;8365;51.030;4.696;2022-11-04T06:01:37;11.70;118.99
16505;HTU21D;8365;51.030;4.696;2022-11-04T06:04:13;11.69;118.99
16505;HTU21D;8365;51.030;4.696;2022-11-04T06:06:43;11.61;118.99
16505;HTU21D;8365;51.030;4.696;2022-11-04T06:09:14;11.67;118.99
16505;HTU21D;8365;51.030;4.696;2022-11-04T06:11:44;11.77;118.99
16505;HTU21D;8365;51.030;4.696;2022-11-04T06:14:17;11.77;118.99
16505;HTU21D;8365;51.030;4.696;2022-11-04T06:16:50;11.78;118.99
16505;HTU21D;8365;51.030;4.696;2022-11-04T06:19:20;11.76;118.99
16505;HTU21D;8365;51.030;4.696;2022-11-04T06:21:51;11.87;118.99
16505;HTU21D;8365;51.030;4.696;2022-11-04T06:24:21;11.79;118.99
16505;HTU21D;8365;51.030;4.696;2022-11-04T06:26:52;11.87;118.99
16505;HTU21D;8365;51.030;4.696;2022-11-04T06:29:22;11.90;118.99
16505;HTU21D;8365;51.030;4.696;2022-11-04T06:31:53;11.94;118.99
16505;HTU21D;8365;51.030;4.696;2022-11-04T06:34:23;11.96;118.99
16505;HTU21D;8365;51.030;4.696;2022-11-04T06:36:54;11.94;118.99
16505;HTU21D;8365;51.030;4.696;2022-11-04T06:39:24;11.93;118.99
16505;HTU21D;8365;51.030;4.696;2022-11-04T06:41:55;11.91;118.99
16505;HTU21D;8365;51.030;4.696;2022-11-04T06:44:25;11.85;118.99
16505;HTU21D;8365;51.030;4.696;2022-11-04T06:46:56;11.98;118.99
16505;HTU21D;8365;51.030;4.696;2022-11-04T06:49:26;11.97;118.99
16505;HTU21D;8365;51.030;4.696;2022-11-04T06:51:57;11.97;118.99
16505;HTU21D;8365;51.030;4.696;2022-11-04T06:54:27;11.97;118.99
16505;HTU21D;8365;51.030;4.696;2022-11-04T06:56:57;11.98;118.99
16505;HTU21D;8365;51.030;4.696;2022-11-04T06:59:28;12.05;118.99
16505;HTU21D;8365;51.030;4.696;2022-11-04T07:01:58;12.08;118.99
16505;HTU21D;8365;51.030;4.696;2022-11-04T07:04:29;11.83;118.99
16505;HTU21D;8365;51.030;4.696;2022-11-04T07:06:59;11.92;118.99
16505;HTU21D;8365;51.030;4.696;2022-11-04T07:09:29;12.01;118.99
16505;HTU21D;8365;51.030;4.696;2022-11-04T07:12:00;12.08;118.99
16505;HTU21D;8365;51.030;4.696;2022-11-04T07:14:30;12.07;118.99
16505;HTU21D;8365;51.030;4.696;2022-11-04T07:17:01;12.07;118.99
16505;HTU21D;8365;51.030;4.696;2022-11-04T07:19:31;12.08;118.99
16505;HTU21D;8365;51.030;4.696;2022-11-04T07:22:01;12.05;118.99
16505;HTU21D;8365;51.030;4.696;2022-11-04T07:24:32;12.11;118.99
16505;HTU21D;8365;51.030;4.696;2022-11-04T07:27:03;12.10;118.99
16505;HTU21D;8365;51.030;4.696;2022-11-04T07:29:33;12.04;118.99
16505;HTU21D;8365;51.030;4.696;2022-11-04T07:32:04;12.21;118.99
16505;HTU21D;8365;51.030;4.696;2022-11-04T07:34:34;12.10;118.99
16505;HTU21D;8365;51.030;4.696;2022-11-04T07:37:05;12.14;118.99
16505;HTU21D;8365;51.030;4.696;2022-11-04T07:39:35;12.31;118.99
16505;HTU21D;8365;51.030;4.696;2022-11-04T07:42:07;12.42;118.99
16505;HTU21D;8365;51.030;4.696;2022-11-04T07:44:37;12.51;118.99
16505;HTU21D;8365;51.030;4.696;2022-11-04T07:47:08;12.59;118.99
16505;HTU21D;8365;51.030;4.696;2022-11-04T07:49:40;12.72;118.99
16505;HTU21D;8365;51.030;4.696;2022-11-04T07:52:13;12.70;118.99
16505;HTU21D;8365;51.030;4.696;2022-11-04T07:54:44;12.79;118.99
16505;HTU21D;8365;51.030;4.696;2022-11-04T07:57:14;12.87;118.99
16505;HTU21D;8365;51.030;4.696;2022-11-04T07:59:44;12.86;118.99
16505;HTU21D;8365;51.030;4.696;2022-11-04T08:02:15;12.88;118.99
16505;HTU21D;8365;51.030;4.696;2022-11-04T08:04:45;13.03;118.99
16505;HTU21D;8365;51.030;4.696;2022-11-04T08:07:16;13.09;118.99
16505;HTU21D;8365;51.030;4.696;2022-11-04T08:09:46;13.23;118.99
16505;HTU21D;8365;51.030;4.696;2022-11-04T08:12:17;13.29;118.99
16505;HTU21D;8365;51.030;4.696;2022-11-04T08:14:50;13.24;118.99
16505;HTU21D;8365;51.030;4.696;2022-11-04T08:17:20;13.32;118.99
16505;HTU21D;8365;51.030;4.696;2022-11-04T08:19:53;13.18;118.99
16505;HTU21D;8365;51.030;4.696;2022-11-04T08:22:23;13.16;118.99
16505;HTU21D;8365;51.030;4.696;2022-11-04T08:24:54;13.14;118.99
16505;HTU21D;8365;51.030;4.696;2022-11-04T08:27:24;13.21;118.99
16505;HTU21D;8365;51.030;4.696;2022-11-04T08:29:55;13.22;118.99
16505;HTU21D;8365;51.030;4.696;2022-11-04T08:32:25;13.26;118.99
16505;HTU21D;8365;51.030;4.696;2022-11-04T08:34:55;13.36;118.99
16505;HTU21D;8365;51.030;4.696;2022-11-04T08:37:26;13.26;118.99
16505;HTU21D;8365;51.030;4.696;2022-11-04T08:39:57;13.41;118.99
16505;HTU21D;8365;51.030;4.696;2022-11-04T08:42:27;13.62;118.99
16505;HTU21D;8365;51.030;4.696;2022-11-04T08:44:57;13.69;118.99
16505;HTU21D;8365;51.030;4.696;2022-11-04T08:47:28;13.70;118.99
16505;HTU21D;8365;51.030;4.696;2022-11-04T08:49:58;13.80;118.99
16505;HTU21D;8365;51.030;4.696;2022-11-04T08:52:29;13.91;118.99
16505;HTU21D;8365;51.030;4.696;2022-11-04T08:54:59;14.00;118.99
16505;HTU21D;8365;51.030;4.696;2022-11-04T08:57:30;14.15;118.99
16505;HTU21D;8365;51.030;4.696;2022-11-04T09:00:01;14.23;118.99
16505;HTU21D;8365;51.030;4.696;2022-11-04T09:02:32;13.97;118.99
16505;HTU21D;8365;51.030;4.696;2022-11-04T09:05:03;14.17;118.99
16505;HTU21D;8365;51.030;4.696;2022-11-04T09:07:35;14.21;118.99
16505;HTU21D;8365;51.030;4.696;2022-11-04T09:10:07;14.15;118.99
16505;HTU21D;8365;51.030;4.696;2022-11-04T09:12:38;13.94;118.99
16505;HTU21D;8365;51.030;4.696;2022-11-04T09:15:08;14.09;118.99
16505;HTU21D;8365;51.030;4.696;2022-11-04T09:17:39;14.12;118.99
16505;HTU21D;8365;51.030;4.696;2022-11-04T09:20:10;14.29;118.99
16505;HTU21D;8365;51.030;4.696;2022-11-04T09:22:41;14.39;118.99
16505;HTU21D;8365;51.030;4.696;2022-11-04T09:25:11;14.39;118.99
16505;HTU21D;8365;51.030;4.696;2022-11-04T09:27:42;14.49;118.99
16505;HTU21D;8365;51.030;4.696;2022-11-04T09:30:13;14.53;118.99
16505;HTU21D;8365;51.030;4.696;2022-11-04T09:32:46;14.67;118.99
16505;HTU21D;8365;51.030;4.696;2022-11-04T09:35:16;14.55;118.99
16505;HTU21D;8365;51.030;4.696;2022-11-04T09:37:47;14.59;118.99
16505;HTU21D;8365;51.030;4.696;2022-11-04T09:40:22;14.59;118.99
16505;HTU21D;8365;51.030;4.696;2022-11-04T09:43:13;14.50;118.99
16505;HTU21D;8365;51.030;4.696;2022-11-04T09:45:49;14.43;118.99
16505;HTU21D;8365;51.030;4.696;2022-11-04T09:48:25;14.25;118.99
16505;HTU21D;8365;51.030;4.696;2022-11-04T09:51:00;14.42;118.99
16505;HTU21D;8365;51.030;4.696;2022-11-04T09:53:43;14.45;118.99
16505;HTU21D;8365;51.030;4.696;2022-11-04T09:56:19;14.39;118.99
16505;HTU21D;8365;51.030;4.696;2022-11-04T09:58:50;14.44;118.99
16505;HTU21D;8365;51.030;4.696;2022-11-04T10:01:39;14.52;118.99
16505;HTU21D;8365;51.030;4.696;2022-11-04T10:04:55;14.65;118.99
16505;HTU21D;8365;51.030;4.696;2022-11-04T10:10:33;14.57;118.99
16505;HTU21D;8365;51.030;4.696;2022-11-04T10:16:22;14.63;118.99
16505;HTU21D;8365;51.030;4.696;2022-11-04T10:22:02;14.64;118.99
16505;HTU21D;8365;51.030;4.696;2022-11-04T10:24:49;14.55;118.99
16505;HTU21D;8365;51.030;4.696;2022-11-04T10:27:27;14.51;118.99
16505;HTU21D;8365;51.030;4.696;2022-11-04T10:38:32;14.37;118.99
16505;HTU21D;8365;51.030;4.696;2022-11-04T10:41:34;14.27;118.99
16505;HTU21D;8365;51.030;4.696;2022-11-04T10:44:10;14.49;118.99
16505;HTU21D;8365;51.030;4.696;2022-11-04T10:52:44;14.43;118.99
16505;HTU21D;8365;51.030;4.696;2022-11-04T10:58:28;14.42;118.99
16505;HTU21D;8365;51.030;4.696;2022-11-04T11:01:20;14.45;118.99
16505;HTU21D;8365;51.030;4.696;2022-11-04T11:03:51;14.53;118.99
16505;HTU21D;8365;51.030;4.696;2022-11-04T11:06:27;14.49;118.99
16505;HTU21D;8365;51.030;4.696;2022-11-04T11:09:20;14.49;118.99
16505;HTU21D;8365;51.030;4.696;2022-11-04T11:12:04;14.19;118.99
16505;HTU21D;8365;51.030;4.696;2022-11-04T11:14:36;14.11;118.99
16505;HTU21D;8365;51.030;4.696;2022-11-04T11:20:05;14.14;118.99
16505;HTU21D;8365;51.030;4.696;2022-11-04T11:22:48;13.92;118.99
16505;HTU21D;8365;51.030;4.696;2022-11-04T11:25:27;13.83;118.99
16505;HTU21D;8365;51.030;4.696;2022-11-04T11:28:06;14.01;118.99
16505;HTU21D;8365;51.030;4.696;2022-11-04T11:31:00;13.94;118.99
16505;HTU21D;8365;51.030;4.696;2022-11-04T11:33:35;14.41;118.99
16505;HTU21D;8365;51.030;4.696;2022-11-04T11:36:08;14.41;118.99
16505;HTU21D;8365;51.030;4.696;2022-11-04T11:39:01;14.36;118.99
16505;HTU21D;8365;51.030;4.696;2022-11-04T11:41:35;14.54;118.99
16505;HTU21D;8365;51.030;4.696;2022-11-04T11:44:26;14.81;118.89
16505;HTU21D;8365;51.030;4.696;2022-11-04T11:47:33;14.80;118.99
16505;HTU21D;8365;51.030;4.696;2022-11-04T11:50:21;15.19;118.99
16505;HTU21D;8365;51.030;4.696;2022-11-04T11:53:17;16.00;118.99
16505;HTU21D;8365;51.030;4.696;2022-11-04T11:55:53;16.71;115.20
16505;HTU21D;8365;51.030;4.696;2022-11-04T11:58:33;17.56;108.81
16505;HTU21D;8365;51.030;4.696;2022-11-04T12:01:14;17.90;106.09
16505;HTU21D;8365;51.030;4.696;2022-11-04T12:03:48;18.08;101.80
16505;HTU21D;8365;51.030;4.696;2022-11-04T12:12:31;18.10;97.74
16505;HTU21D;8365;51.030;4.696;2022-11-04T12:15:31;18.28;95.91
16505;HTU21D;8365;51.030;4.696;2022-11-04T12:23:29;17.21;99.76
16505;HTU21D;8365;51.030;4.696;2022-11-04T12:26:04;17.43;99.71
16505;HTU21D;8365;51.030;4.696;2022-11-04T12:45:29;19.22;91.34
16505;HTU21D;8365;51.030;4.696;2022-11-04T12:48:10;19.15;87.86
16505;HTU21D;8365;51.030;4.696;2022-11-04T12:56:37;18.43;90.50
16505;HTU21D;8365;51.030;4.696;2022-11-04T12:59:23;18.06;93.27
16505;HTU21D;8365;51.030;4.696;2022-11-04T13:02:01;17.85;94.37
16505;HTU21D;8365;51.030;4.696;2022-11-04T13:04:39;17.93;95.60
16505;HTU21D;8365;51.030;4.696;2022-11-04T13:07:19;17.81;95.39
16505;HTU21D;8365;51.030;4.696;2022-11-04T13:09:56;17.49;97.09
16505;HTU21D;8365;51.030;4.696;2022-11-04T13:12:38;17.07;100.15
16505;HTU21D;8365;51.030;4.696;2022-11-04T13:15:22;16.03;104.44
16505;HTU21D;8365;51.030;4.696;2022-11-04T13:18:03;15.81;106.33
16505;HTU21D;8365;51.030;4.696;2022-11-04T13:21:14;16.02;108.36
16505;HTU21D;8365;51.030;4.696;2022-11-04T13:23:56;16.78;104.56
16505;HTU21D;8365;51.030;4.696;2022-11-04T13:26:28;17.77;102.07
16505;HTU21D;8365;51.030;4.696;2022-11-04T13:29:19;18.93;93.35
16505;HTU21D;8365;51.030;4.696;2022-11-04T13:34:43;18.95;92.97
16505;HTU21D;8365;51.030;4.696;2022-11-04T13:37:24;18.84;91.85
16505;HTU21D;8365;51.030;4.696;2022-11-04T13:39:59;18.23;94.86
16505;HTU21D;8365;51.030;4.696;2022-11-04T13:42:48;17.73;97.79
16505;HTU21D;8365;51.030;4.696;2022-11-04T13:45:23;17.09;102.60
16505;HTU21D;8365;51.030;4.696;2022-11-04T13:47:56;17.49;99.28
16505;HTU21D;8365;51.030;4.696;2022-11-04T13:50:36;17.61;99.74
16505;HTU21D;8365;51.030;4.696;2022-11-04T13:53:09;17.81;97.23
16505;HTU21D;8365;51.030;4.696;2022-11-04T13:55:49;17.63;96.58
16505;HTU21D;8365;51.030;4.696;2022-11-04T13:58:24;17.78;97.93
16505;HTU21D;8365;51.030;4.696;2022-11-04T14:03:52;16.29;99.94
16505;HTU21D;8365;51.030;4.696;2022-11-04T14:06:48;16.13;99.13
16505;HTU21D;8365;51.030;4.696;2022-11-04T14:14:49;15.29;104.40
16505;HTU21D;8365;51.030;4.696;2022-11-04T14:20:22;14.57;109.39
16505;HTU21D;8365;51.030;4.696;2022-11-04T14:22:58;14.39;110.34
16505;HTU21D;8365;51.030;4.696;2022-11-04T14:25:40;14.34;111.69
16505;HTU21D;8365;51.030;4.696;2022-11-04T14:30:51;14.52;111.61
16505;HTU21D;8365;51.030;4.696;2022-11-04T14:33:53;14.37;112.33
16505;HTU21D;8365;51.030;4.696;2022-11-04T14:46:47;14.20;114.30
16505;HTU21D;8365;51.030;4.696;2022-11-04T14:52:26;14.38;113.16
16505;HTU21D;8365;51.030;4.696;2022-11-04T14:55:07;14.50;112.03
16505;HTU21D;8365;51.030;4.696;2022-11-04T14:57:43;14.69;110.46
16505;HTU21D;8365;51.030;4.696;2022-11-04T15:00:35;14.75;111.84
16505;HTU21D;8365;51.030;4.696;2022-11-04T15:10:59;14.11;112.22
16505;HTU21D;8365;51.030;4.696;2022-11-04T15:13:47;14.00;111.39
16505;HTU21D;8365;51.030;4.696;2022-11-04T15:16:24;14.01;113.52
16505;HTU21D;8365;51.030;4.696;2022-11-04T15:18:57;14.10;112.42
16505;HTU21D;8365;51.030;4.696;2022-11-04T15:21:28;14.26;112.61
16505;HTU21D;8365;51.030;4.696;2022-11-04T15:23:58;14.21;111.87
16505;HTU21D;8365;51.030;4.696;2022-11-04T15:26:32;13.68;116.32
16505;HTU21D;8365;51.030;4.696;2022-11-04T15:29:11;13.67;115.65
16505;HTU21D;8365;51.030;4.696;2022-11-04T15:32:00;13.38;114.86
16505;HTU21D;8365;51.030;4.696;2022-11-04T15:34:32;13.45;113.19
16505;HTU21D;8365;51.030;4.696;2022-11-04T15:37:04;13.53;113.96
16505;HTU21D;8365;51.030;4.696;2022-11-04T15:39:41;13.27;112.25
16505;HTU21D;8365;51.030;4.696;2022-11-04T15:42:24;13.10;113.22
16505;HTU21D;8365;51.030;4.696;2022-11-04T15:45:35;12.84;111.07
16505;HTU21D;8365;51.030;4.696;2022-11-04T15:51:23;12.66;112.47
16505;HTU21D;8365;51.030;4.696;2022-11-04T15:53:58;12.65;112.46
16505;HTU21D;8365;51.030;4.696;2022-11-04T15:56:39;12.85;112.28
16505;HTU21D;8365;51.030;4.696;2022-11-04T15:59:14;12.85;111.26
16505;HTU21D;8365;51.030;4.696;2022-11-04T16:01:47;12.81;111.64
16505;HTU21D;8365;51.030;4.696;2022-11-04T16:04:21;12.94;111.65
16505;HTU21D;8365;51.030;4.696;2022-11-04T16:12:57;12.91;112.00
16505;HTU21D;8365;51.030;4.696;2022-11-04T16:18:06;12.87;111.93
16505;HTU21D;8365;51.030;4.696;2022-11-04T16:20:50;12.95;112.44
16505;HTU21D;8365;51.030;4.696;2022-11-04T16:23:24;13.01;112.32
16505;HTU21D;8365;51.030;4.696;2022-11-04T16:26:00;12.94;114.31
16505;HTU21D;8365;51.030;4.696;2022-11-04T16:28:37;12.95;112.96
16505;HTU21D;8365;51.030;4.696;2022-11-04T16:33:51;13.01;113.50
16505;HTU21D;8365;51.030;4.696;2022-11-04T16:36:21;12.94;113.17
16505;HTU21D;8365;51.030;4.696;2022-11-04T16:38:56;13.01;112.96
16505;HTU21D;8365;51.030;4.696;2022-11-04T16:41:28;12.89;114.89
16505;HTU21D;8365;51.030;4.696;2022-11-04T16:44:02;12.82;115.81
16505;HTU21D;8365;51.030;4.696;2022-11-04T16:46:33;12.69;114.80
16505;HTU21D;8365;51.030;4.696;2022-11-04T16:49:04;12.74;114.64
16505;HTU21D;8365;51.030;4.696;2022-11-04T16:51:34;12.79;114.95
16505;HTU21D;8365;51.030;4.696;2022-11-04T16:54:05;12.67;114.45
16505;HTU21D;8365;51.030;4.696;2022-11-04T16:56:35;12.60;116.62
16505;HTU21D;8365;51.030;4.696;2022-11-04T16:59:10;12.57;115.96
16505;HTU21D;8365;51.030;4.696;2022-11-04T17:01:40;12.64;115.28
16505;HTU21D;8365;51.030;4.696;2022-11-04T17:04:11;12.55;115.81
16505;HTU21D;8365;51.030;4.696;2022-11-04T17:06:42;12.56;115.83
16505;HTU21D;8365;51.030;4.696;2022-11-04T17:09:18;12.37;116.12
16505;HTU21D;8365;51.030;4.696;2022-11-04T17:11:52;12.50;116.13
16505;HTU21D;8365;51.030;4.696;2022-11-04T17:14:22;12.34;116.58
16505;HTU21D;8365;51.030;4.696;2022-11-04T17:16:53;12.33;117.21
16505;HTU21D;8365;51.030;4.696;2022-11-04T17:19:23;12.31;116.02
16505;HTU21D;8365;51.030;4.696;2022-11-04T17:21:54;12.51;115.24
16505;HTU21D;8365;51.030;4.696;2022-11-04T17:24:32;12.33;115.77
16505;HTU21D;8365;51.030;4.696;2022-11-04T17:27:02;12.06;118.87
16505;HTU21D;8365;51.030;4.696;2022-11-04T17:29:33;12.03;117.87
16505;HTU21D;8365;51.030;4.696;2022-11-04T17:32:07;12.21;118.58
16505;HTU21D;8365;51.030;4.696;2022-11-04T17:34:38;12.22;117.34
16505;HTU21D;8365;51.030;4.696;2022-11-04T17:37:11;12.23;116.47
16505;HTU21D;8365;51.030;4.696;2022-11-04T17:39:42;12.14;118.09
16505;HTU21D;8365;51.030;4.696;2022-11-04T17:42:13;12.18;118.25
16505;HTU21D;8365;51.030;4.696;2022-11-04T17:45:02;12.13;118.09
16505;HTU21D;8365;51.030;4.696;2022-11-04T17:47:36;12.19;116.83
16505;HTU21D;8365;51.030;4.696;2022-11-04T17:50:07;12.17;117.94
16505;HTU21D;8365;51.030;4.696;2022-11-04T17:52:38;12.12;117.81
16505;HTU21D;8365;51.030;4.696;2022-11-04T17:55:09;12.08;118.12
16505;HTU21D;8365;51.030;4.696;2022-11-04T17:57:40;12.01;116.74
16505;HTU21D;8365;51.030;4.696;2022-11-04T18:00:11;12.07;117.91
16505;HTU21D;8365;51.030;4.696;2022-11-04T18:02:43;11.97;117.73
16505;HTU21D;8365;51.030;4.696;2022-11-04T18:05:13;11.86;118.99
16505;HTU21D;8365;51.030;4.696;2022-11-04T18:07:44;11.41;118.99
16505;HTU21D;8365;51.030;4.696;2022-11-04T18:10:14;11.13;118.99
16505;HTU21D;8365;51.030;4.696;2022-11-04T18:12:45;11.18;118.99
16505;HTU21D;8365;51.030;4.696;2022-11-04T18:15:15;10.85;118.99
16505;HTU21D;8365;51.030;4.696;2022-11-04T18:17:46;10.77;118.99
16505;HTU21D;8365;51.030;4.696;2022-11-04T18:20:19;10.64;118.99
16505;HTU21D;8365;51.030;4.696;2022-11-04T18:22:49;10.71;118.99
16505;HTU21D;8365;51.030;4.696;2022-11-04T18:25:19;10.53;118.99
16505;HTU21D;8365;51.030;4.696;2022-11-04T18:27:50;10.68;118.99
16505;HTU21D;8365;51.030;4.696;2022-11-04T18:30:20;10.67;118.99
16505;HTU21D;8365;51.030;4.696;2022-11-04T18:32:55;10.74;118.99
16505;HTU21D;8365;51.030;4.696;2022-11-04T18:35:28;10.52;118.99
16505;HTU21D;8365;51.030;4.696;2022-11-04T18:37:58;10.67;118.99